createdAt,value
2018-07-20T00:01:04.335Z,99.90
2018-07-20T00:03:33.155Z,99.90
2018-07-20T00:06:01.948Z,99.90
2018-07-20T00:08:30.986Z,99.90
2018-07-20T00:11:00.041Z,99.90
2018-07-20T00:13:29.051Z,99.90
2018-07-20T00:15:58.193Z,99.90
2018-07-20T00:18:27.392Z,99.90
2018-07-20T00:20:56.494Z,99.90
2018-07-20T00:23:25.239Z,99.90
2018-07-20T00:25:54.134Z,99.90
2018-07-20T00:28:22.692Z,99.90
2018-07-20T00:30:51.387Z,99.90
2018-07-20T00:33:20.020Z,99.90
2018-07-20T00:38:16.654Z,99.90
2018-07-20T00:40:45.117Z,99.90
2018-07-20T00:43:13.879Z,99.90
2018-07-20T00:45:42.295Z,99.90
2018-07-20T00:48:10.715Z,99.90
2018-07-20T00:50:39.184Z,99.90
2018-07-20T00:53:07.628Z,99.90
2018-07-20T00:55:36.232Z,99.90
2018-07-20T00:58:04.906Z,99.90
2018-07-20T01:00:33.558Z,99.90
2018-07-20T01:03:02.255Z,99.90
2018-07-20T01:05:30.972Z,99.90
2018-07-20T01:07:59.995Z,99.90
2018-07-20T01:10:28.862Z,99.90
2018-07-20T01:12:58.431Z,99.90
2018-07-20T01:15:27.995Z,99.90
2018-07-20T01:17:56.934Z,99.90
2018-07-20T01:20:25.979Z,99.90
2018-07-20T01:22:55.423Z,99.90
2018-07-20T01:25:24.059Z,99.90
2018-07-20T01:27:52.803Z,99.90
2018-07-20T01:30:21.425Z,99.90
2018-07-20T01:32:50.632Z,99.90
2018-07-20T01:35:19.120Z,99.90
2018-07-20T01:37:47.573Z,99.90
2018-07-20T01:40:16.014Z,99.90
2018-07-20T01:42:44.446Z,99.90
2018-07-20T01:45:12.944Z,99.90
2018-07-20T01:50:09.840Z,99.90
2018-07-20T01:52:38.283Z,99.90
2018-07-20T01:55:06.857Z,99.90
2018-07-20T01:57:35.546Z,99.90
2018-07-20T02:00:04.847Z,99.90
2018-07-20T02:02:33.439Z,99.90
2018-07-20T02:05:02.067Z,99.90
2018-07-20T02:07:30.702Z,99.90
2018-07-20T02:09:59.396Z,99.90
2018-07-20T02:12:28.418Z,99.90
2018-07-20T02:14:57.725Z,99.90
2018-07-20T02:17:26.788Z,99.90
2018-07-20T02:19:55.685Z,99.90
2018-07-20T02:22:24.384Z,99.90
2018-07-20T02:24:53.215Z,99.90
2018-07-20T02:27:21.778Z,99.90
2018-07-20T02:29:50.350Z,99.90
2018-07-20T02:32:19.137Z,99.90
2018-07-20T02:34:47.672Z,99.90
2018-07-20T02:37:16.287Z,99.90
2018-07-20T02:39:44.685Z,99.90
2018-07-20T02:42:13.084Z,99.90
2018-07-20T02:44:41.543Z,99.90
2018-07-20T02:47:10.052Z,99.90
2018-07-20T02:49:38.503Z,99.90
2018-07-20T02:52:06.926Z,99.90
2018-07-20T02:54:35.503Z,99.90
2018-07-20T02:57:04.135Z,99.90
2018-07-20T02:59:32.824Z,99.90
2018-07-20T03:02:01.459Z,99.90
2018-07-20T03:04:30.241Z,99.90
2018-07-20T03:06:59.095Z,99.90
2018-07-20T03:09:27.888Z,99.90
2018-07-20T03:11:56.915Z,99.90
2018-07-20T03:14:25.768Z,99.90
2018-07-20T03:16:54.335Z,99.90
2018-07-20T03:19:23.065Z,99.90
2018-07-20T03:21:51.622Z,99.90
2018-07-20T03:26:48.438Z,99.90
2018-07-20T03:29:16.843Z,99.90
2018-07-20T03:31:45.296Z,99.90
2018-07-20T03:34:13.769Z,99.90
2018-07-20T03:36:42.188Z,99.90
2018-07-20T03:39:11.060Z,99.90
2018-07-20T03:41:39.563Z,99.90
2018-07-20T03:44:08.480Z,99.90
2018-07-20T03:46:37.251Z,99.90
2018-07-20T03:49:06.074Z,99.90
2018-07-20T03:51:34.778Z,99.90
2018-07-20T03:54:03.295Z,99.90
2018-07-20T03:56:31.886Z,99.90
2018-07-20T03:59:00.462Z,99.90
2018-07-20T04:01:29.059Z,99.90
2018-07-20T04:08:54.602Z,99.90
2018-07-20T04:11:23.011Z,99.90
2018-07-20T04:13:51.534Z,99.90
2018-07-20T04:16:20.171Z,99.90
2018-07-20T04:18:48.547Z,99.90
2018-07-20T04:21:16.929Z,99.90
2018-07-20T04:23:45.435Z,99.90
2018-07-20T04:26:13.975Z,99.90
2018-07-20T04:28:42.486Z,99.90
2018-07-20T04:31:10.983Z,99.90
2018-07-20T04:33:39.407Z,99.90
2018-07-20T04:36:11.720Z,99.90
2018-07-20T04:38:40.306Z,99.90
2018-07-20T04:41:08.722Z,99.90
2018-07-20T04:43:37.225Z,99.90
2018-07-20T04:46:05.639Z,99.90
2018-07-20T04:48:34.078Z,99.90
2018-07-20T04:51:02.660Z,99.90
2018-07-20T04:53:31.258Z,99.90
2018-07-20T04:55:59.775Z,99.90
2018-07-20T04:58:28.298Z,99.90
2018-07-20T05:00:56.966Z,99.90
2018-07-20T05:03:26.739Z,99.90
2018-07-20T05:05:55.652Z,99.90
2018-07-20T05:08:24.114Z,99.90
2018-07-20T05:10:52.634Z,99.90
2018-07-20T05:13:21.170Z,99.90
2018-07-20T05:15:49.694Z,99.90
2018-07-20T05:18:18.218Z,99.90
2018-07-20T05:20:46.650Z,99.90
2018-07-20T05:23:15.010Z,99.90
2018-07-20T05:25:43.455Z,99.90
2018-07-20T05:28:11.929Z,99.90
2018-07-20T05:30:40.283Z,99.90
2018-07-20T05:33:08.679Z,99.90
2018-07-20T05:35:37.138Z,99.90
2018-07-20T05:38:05.602Z,99.90
2018-07-20T05:40:34.030Z,99.90
2018-07-20T05:43:02.588Z,99.90
2018-07-20T05:45:31.130Z,99.90
2018-07-20T05:47:59.660Z,99.90
2018-07-20T05:50:28.394Z,99.90
2018-07-20T05:52:57.009Z,99.90
2018-07-20T05:55:26.046Z,99.90
2018-07-20T05:57:55.055Z,99.90
2018-07-20T06:00:23.598Z,99.90
2018-07-20T06:02:52.111Z,99.90
2018-07-20T06:05:21.302Z,99.90
2018-07-20T06:07:50.166Z,99.90
2018-07-20T06:10:18.715Z,99.90
2018-07-20T06:12:47.218Z,99.90
2018-07-20T06:15:15.593Z,99.90
2018-07-20T06:17:43.999Z,99.90
2018-07-20T06:20:12.421Z,99.90
2018-07-20T06:22:40.986Z,99.90
2018-07-20T06:25:09.427Z,99.90
2018-07-20T06:27:37.840Z,99.90
2018-07-20T06:30:06.868Z,99.90
2018-07-20T06:32:35.297Z,99.90
2018-07-20T06:35:03.914Z,99.90
2018-07-20T06:37:33.043Z,99.90
2018-07-20T06:40:01.722Z,99.90
2018-07-20T06:44:58.785Z,99.90
2018-07-20T06:47:27.527Z,99.90
2018-07-20T06:49:56.372Z,99.90
2018-07-20T06:52:25.403Z,99.90
2018-07-20T06:54:54.502Z,99.90
2018-07-20T06:57:22.994Z,99.90
2018-07-20T06:59:51.639Z,99.90
2018-07-20T07:02:21.852Z,99.90
2018-07-20T07:04:50.385Z,99.90
2018-07-20T07:07:18.801Z,99.90
2018-07-20T07:09:47.239Z,99.90
2018-07-20T07:12:15.592Z,99.90
2018-07-20T07:14:44.093Z,99.90
2018-07-20T07:17:12.503Z,98.40
2018-07-20T07:19:41.615Z,99.90
2018-07-20T07:22:10.436Z,99.90
2018-07-20T07:24:39.495Z,95.00
2018-07-20T07:27:07.983Z,91.30
2018-07-20T07:29:36.387Z,92.80
2018-07-20T07:32:04.875Z,95.30
2018-07-20T07:34:33.428Z,94.20
2018-07-20T07:37:01.988Z,95.60
2018-07-20T07:39:30.700Z,90.80
2018-07-20T07:41:59.653Z,95.90
2018-07-20T07:44:28.495Z,84.70
2018-07-20T07:46:57.182Z,85.00
2018-07-20T07:49:26.161Z,87.90
2018-07-20T07:51:54.718Z,86.30
2018-07-20T07:54:23.291Z,83.60
2018-07-20T07:56:52.271Z,90.00
2018-07-20T07:59:21.334Z,92.20
2018-07-20T08:01:49.774Z,87.70
2018-07-20T08:04:18.590Z,82.50
2018-07-20T08:06:47.006Z,71.80
2018-07-20T08:09:15.515Z,65.60
2018-07-20T08:11:43.813Z,70.00
2018-07-20T08:14:13.053Z,60.70
2018-07-20T08:16:41.434Z,65.60
2018-07-20T08:19:09.867Z,59.80
2018-07-20T08:21:38.317Z,66.70
2018-07-20T08:24:07.242Z,65.90
2018-07-20T08:26:35.787Z,81.40
2018-07-20T08:29:04.439Z,74.10
2018-07-20T08:31:32.915Z,62.50
2018-07-20T08:34:01.532Z,67.30
2018-07-20T08:36:30.166Z,65.20
2018-07-20T08:38:59.012Z,68.50
2018-07-20T08:41:28.044Z,63.30
2018-07-20T08:43:56.895Z,59.50
2018-07-20T08:46:25.679Z,68.90
2018-07-20T08:48:55.045Z,68.90
2018-07-20T08:51:23.544Z,66.60
2018-07-20T08:53:52.008Z,63.60
2018-07-20T08:56:20.929Z,57.50
2018-07-20T08:58:49.687Z,59.60
2018-07-20T09:01:18.407Z,68.00
2018-07-20T09:03:46.834Z,67.10
2018-07-20T09:06:15.215Z,70.60
2018-07-20T09:08:43.614Z,71.30
2018-07-20T09:11:12.047Z,76.80
2018-07-20T09:13:40.507Z,73.70
2018-07-20T09:16:08.861Z,63.00
2018-07-20T09:18:37.388Z,62.50
2018-07-20T09:21:05.846Z,59.20
2018-07-20T09:23:34.263Z,64.20
2018-07-20T09:26:02.999Z,49.50
2018-07-20T09:28:32.498Z,48.40
2018-07-20T09:31:01.389Z,50.90
2018-07-20T09:33:29.905Z,62.30
2018-07-20T09:35:59.710Z,52.70
2018-07-20T09:38:29.151Z,52.70
2018-07-20T09:40:58.255Z,56.40
2018-07-20T09:43:28.000Z,55.40
2018-07-20T09:48:26.626Z,49.40
2018-07-20T09:50:55.934Z,52.80
2018-07-20T09:53:24.727Z,56.30
2018-07-20T09:55:53.484Z,50.00
2018-07-20T09:58:22.361Z,49.50
2018-07-20T10:00:52.079Z,56.50
2018-07-20T10:03:21.839Z,54.90
2018-07-20T10:05:50.347Z,48.00
2018-07-20T10:08:19.920Z,49.30
2018-07-20T10:10:48.620Z,49.50
2018-07-20T10:13:17.763Z,51.00
2018-07-20T10:15:46.524Z,59.60
2018-07-20T10:18:15.539Z,54.20
2018-07-20T10:20:44.160Z,56.10
2018-07-20T10:23:12.866Z,53.40
2018-07-20T10:25:41.588Z,51.10
2018-07-20T10:28:10.236Z,51.80
2018-07-20T10:30:39.019Z,47.10
2018-07-20T10:33:07.803Z,49.40
2018-07-20T10:35:37.270Z,52.50
2018-07-20T10:38:06.094Z,57.50
2018-07-20T10:40:34.649Z,61.00
2018-07-20T10:43:03.266Z,57.50
2018-07-20T10:45:32.078Z,49.70
2018-07-20T10:48:05.583Z,47.90
2018-07-20T10:50:34.234Z,46.90
2018-07-20T10:53:03.139Z,46.90
2018-07-20T10:55:32.027Z,51.40
2018-07-20T11:00:29.207Z,54.20
2018-07-20T11:02:58.491Z,49.10
2018-07-20T11:05:27.527Z,48.50
2018-07-20T11:07:56.479Z,41.20
2018-07-20T11:10:25.440Z,39.50
2018-07-20T11:12:54.191Z,43.20
2018-07-20T11:15:23.107Z,48.70
2018-07-20T11:17:52.479Z,41.90
2018-07-20T11:20:21.551Z,45.60
2018-07-20T11:22:57.495Z,41.80
2018-07-20T11:25:26.618Z,54.60
2018-07-20T11:27:55.739Z,49.70
2018-07-20T11:30:25.195Z,53.00
2018-07-20T11:32:54.016Z,50.30
2018-07-20T11:35:22.679Z,48.00
2018-07-20T11:37:51.172Z,43.90
2018-07-20T11:40:19.843Z,44.20
2018-07-20T11:42:48.446Z,46.30
2018-07-20T11:45:16.883Z,43.60
2018-07-20T11:47:45.287Z,50.70
2018-07-20T11:50:13.770Z,51.10
2018-07-20T11:52:42.276Z,52.50
2018-07-20T11:55:10.736Z,48.50
2018-07-20T11:57:39.190Z,44.30
2018-07-20T12:00:07.710Z,42.40
2018-07-20T12:02:36.259Z,42.50
2018-07-20T12:05:05.150Z,42.10
2018-07-20T12:07:34.228Z,42.10
2018-07-20T12:10:02.874Z,51.50
2018-07-20T12:12:31.736Z,43.00
2018-07-20T12:15:00.591Z,42.90
2018-07-20T12:17:30.023Z,43.70
2018-07-20T12:19:59.519Z,43.20
2018-07-20T12:22:29.061Z,44.40
2018-07-20T12:24:58.312Z,42.50
2018-07-20T12:27:27.990Z,40.90
2018-07-20T12:32:25.904Z,40.40
2018-07-20T12:34:54.920Z,43.80
2018-07-20T12:37:23.707Z,44.20
2018-07-20T12:39:52.342Z,44.80
2018-07-20T12:42:21.371Z,49.50
2018-07-20T12:44:49.981Z,44.70
2018-07-20T12:47:18.628Z,42.00
2018-07-20T12:49:46.990Z,46.60
2018-07-20T12:52:15.650Z,51.20
2018-07-20T12:54:44.039Z,46.10
2018-07-20T12:57:12.588Z,46.20
2018-07-20T12:59:41.258Z,50.00
2018-07-20T13:02:09.743Z,47.30
2018-07-20T13:04:38.391Z,52.60
2018-07-20T13:07:07.092Z,48.10
2018-07-20T13:09:35.783Z,46.10
2018-07-20T13:12:04.525Z,45.90
2018-07-20T13:14:33.301Z,45.50
2018-07-20T13:17:02.189Z,44.90
2018-07-20T13:19:31.394Z,46.20
2018-07-20T13:22:00.397Z,47.40
2018-07-20T13:24:29.510Z,45.60
2018-07-20T13:26:59.229Z,43.30
2018-07-20T13:29:28.583Z,50.60
2018-07-20T13:31:57.789Z,45.20
2018-07-20T13:34:27.987Z,47.30
2018-07-20T13:36:57.830Z,47.80
2018-07-20T13:39:27.655Z,46.40
2018-07-20T13:41:57.801Z,45.30
2018-07-20T13:44:27.903Z,49.30
2018-07-20T13:46:56.933Z,45.40
2018-07-20T13:49:25.980Z,45.00
2018-07-20T13:51:55.030Z,48.00
2018-07-20T13:54:24.830Z,44.80
2018-07-20T13:56:53.772Z,48.20
2018-07-20T13:59:22.802Z,47.80
2018-07-20T14:01:51.746Z,43.20
2018-07-20T14:04:20.526Z,46.30
2018-07-20T14:06:49.123Z,50.10
2018-07-20T14:09:17.686Z,43.20
2018-07-20T14:11:46.123Z,45.60
2018-07-20T14:14:14.811Z,42.40
2018-07-20T14:16:43.279Z,47.20
2018-07-20T14:19:17.768Z,45.50
2018-07-20T14:21:46.390Z,46.60
2018-07-20T14:24:14.747Z,49.50
2018-07-20T14:26:43.176Z,50.10
2018-07-20T14:29:11.830Z,50.10
2018-07-20T14:31:40.451Z,47.30
2018-07-20T14:34:08.899Z,51.60
2018-07-20T14:36:37.418Z,46.50
2018-07-20T14:39:08.912Z,45.30
2018-07-20T14:41:38.479Z,50.00
2018-07-20T14:44:07.093Z,46.90
2018-07-20T14:46:35.656Z,50.10
2018-07-20T14:49:04.730Z,49.00
2018-07-20T14:51:33.431Z,52.10
2018-07-20T14:54:02.143Z,51.70
2018-07-20T14:56:30.950Z,52.30
2018-07-20T14:58:59.459Z,51.40
2018-07-20T15:01:28.333Z,49.80
2018-07-20T15:03:57.235Z,49.00
2018-07-20T15:06:26.239Z,49.00
2018-07-20T15:08:54.870Z,53.40
2018-07-20T15:11:23.376Z,51.70
2018-07-20T15:13:51.812Z,51.70
2018-07-20T15:16:20.394Z,54.10
2018-07-20T15:18:48.953Z,53.80
2018-07-20T15:21:17.451Z,53.40
2018-07-20T15:23:45.911Z,52.90
2018-07-20T15:26:14.306Z,53.40
2018-07-20T15:28:42.737Z,54.60
2018-07-20T15:31:11.266Z,54.20
2018-07-20T15:33:39.781Z,54.20
2018-07-20T15:36:08.204Z,56.30
2018-07-20T15:38:36.811Z,54.00
2018-07-20T15:41:05.526Z,55.50
2018-07-20T15:43:34.161Z,56.20
2018-07-20T15:46:06.237Z,55.70
2018-07-20T15:48:31.735Z,54.40
2018-07-20T15:51:00.455Z,54.40
2018-07-20T15:53:37.358Z,55.00
2018-07-20T15:55:59.555Z,54.90
2018-07-20T15:58:28.985Z,54.90
2018-07-20T16:00:58.418Z,53.70
2018-07-20T16:03:28.393Z,53.90
2018-07-20T16:05:57.241Z,56.00
2018-07-20T16:08:26.211Z,54.30
2018-07-20T16:10:55.176Z,56.40
2018-07-20T16:13:24.047Z,55.20
2018-07-20T16:15:52.436Z,56.00
2018-07-20T16:18:20.886Z,53.20
2018-07-20T16:20:49.246Z,54.60
2018-07-20T16:23:17.643Z,53.80
2018-07-20T16:25:46.084Z,55.00
2018-07-20T16:28:14.391Z,55.00
2018-07-20T16:30:42.802Z,54.40
2018-07-20T16:33:28.254Z,55.00
2018-07-20T16:35:57.131Z,57.60
2018-07-20T16:38:25.961Z,57.00
2018-07-20T16:40:54.648Z,56.80
2018-07-20T16:43:23.345Z,57.60
2018-07-20T16:45:51.920Z,57.30
2018-07-20T16:48:20.399Z,59.40
2018-07-20T16:50:48.911Z,57.90
2018-07-20T16:53:17.632Z,57.90
2018-07-20T16:55:46.104Z,58.50
2018-07-20T16:58:14.626Z,57.20
2018-07-20T17:00:43.923Z,57.90
2018-07-20T17:03:22.162Z,59.00
2018-07-20T17:05:50.591Z,59.90
2018-07-20T17:08:19.172Z,60.80
2018-07-20T17:10:47.710Z,60.00
2018-07-20T17:13:16.087Z,58.60
2018-07-20T17:15:44.495Z,60.20
2018-07-20T17:18:12.839Z,60.40
2018-07-20T17:20:41.243Z,60.40
2018-07-20T17:23:09.707Z,60.80
2018-07-20T17:25:38.206Z,60.40
2018-07-20T17:28:07.079Z,59.10
2018-07-20T17:30:35.756Z,59.10
2018-07-20T17:33:04.798Z,59.40
2018-07-20T17:35:33.543Z,60.50
2018-07-20T17:38:02.203Z,61.60
2018-07-20T17:40:30.943Z,62.50
2018-07-20T17:42:59.911Z,64.00
2018-07-20T17:45:29.091Z,63.20
2018-07-20T17:47:58.763Z,63.40
2018-07-20T17:50:28.404Z,68.40
2018-07-20T17:52:57.723Z,65.80
2018-07-20T17:55:26.515Z,66.90
2018-07-20T17:57:57.177Z,67.40
2018-07-20T18:00:26.748Z,68.20
2018-07-20T18:02:56.144Z,70.10
2018-07-20T18:05:25.372Z,70.40
2018-07-20T18:07:53.990Z,69.80
2018-07-20T18:10:22.538Z,72.50
2018-07-20T18:12:50.914Z,76.10
2018-07-20T18:15:19.218Z,73.90
2018-07-20T18:17:47.735Z,75.90
2018-07-20T18:20:16.212Z,76.60
2018-07-20T18:22:44.790Z,78.20
2018-07-20T18:25:14.207Z,77.00
2018-07-20T18:27:42.750Z,76.90
2018-07-20T18:30:11.150Z,76.80
2018-07-20T18:32:39.627Z,77.90
2018-07-20T18:35:08.112Z,80.80
2018-07-20T18:37:36.947Z,80.40
2018-07-20T18:40:05.876Z,80.50
2018-07-20T18:42:34.768Z,81.80
2018-07-20T18:45:03.587Z,83.00
2018-07-20T18:47:32.683Z,83.40
2018-07-20T18:50:01.466Z,85.00
2018-07-20T18:52:31.405Z,83.20
2018-07-20T18:55:00.169Z,83.70
2018-07-20T18:57:29.234Z,84.90
2018-07-20T18:59:58.584Z,86.20
2018-07-20T19:02:28.030Z,84.00
2018-07-20T19:04:57.489Z,84.10
2018-07-20T19:07:26.959Z,85.00
2018-07-20T19:09:55.819Z,85.30
2018-07-20T19:12:24.440Z,85.30
2018-07-20T19:14:57.183Z,85.50
2018-07-20T19:17:26.034Z,85.70
2018-07-20T19:19:55.318Z,87.60
2018-07-20T19:22:24.523Z,87.80
2018-07-20T19:24:53.065Z,87.70
2018-07-20T19:27:21.595Z,87.40
2018-07-20T19:29:50.061Z,87.30
2018-07-20T19:32:18.516Z,87.10
2018-07-20T19:34:46.923Z,89.20
2018-07-20T19:37:15.325Z,88.60
2018-07-20T19:39:43.819Z,89.60
2018-07-20T19:42:12.178Z,90.00
2018-07-20T19:44:40.672Z,89.20
2018-07-20T19:47:09.093Z,89.50
2018-07-20T19:49:37.919Z,90.40
2018-07-20T19:52:07.033Z,91.70
2018-07-20T19:54:35.605Z,91.70
2018-07-20T19:57:04.425Z,90.90
2018-07-20T19:59:33.223Z,91.90
2018-07-20T20:02:02.744Z,91.50
2018-07-20T20:04:31.475Z,91.60
2018-07-20T20:07:00.480Z,92.40
2018-07-20T20:09:29.683Z,93.70
2018-07-20T20:11:59.048Z,94.60
2018-07-20T20:14:28.283Z,95.60
2018-07-20T20:16:57.601Z,96.10
2018-07-20T20:19:27.517Z,97.20
2018-07-20T20:21:57.118Z,97.60
2018-07-20T20:24:26.214Z,98.70
2018-07-20T20:26:54.833Z,99.90
2018-07-20T20:29:23.292Z,99.90
2018-07-20T20:31:51.778Z,99.90
2018-07-20T20:34:20.327Z,99.90
2018-07-20T20:36:48.858Z,99.90
2018-07-20T20:39:29.930Z,99.90
2018-07-20T20:41:59.272Z,99.90
2018-07-20T20:44:28.643Z,99.90
2018-07-20T20:46:57.824Z,99.90
2018-07-20T20:49:27.355Z,99.90
2018-07-20T20:51:57.112Z,99.90
2018-07-20T20:54:26.092Z,99.90
2018-07-20T20:56:54.935Z,99.90
2018-07-20T20:59:24.319Z,99.90
2018-07-20T21:01:53.523Z,99.90
2018-07-20T21:04:22.513Z,99.90
2018-07-20T21:06:50.854Z,99.90
2018-07-20T21:09:19.217Z,99.90
2018-07-20T21:11:47.713Z,99.90
2018-07-20T21:14:26.761Z,99.90
2018-07-20T21:16:55.855Z,99.90
2018-07-20T21:19:25.091Z,99.90
2018-07-20T21:21:53.814Z,99.90
2018-07-20T21:24:22.395Z,99.90
2018-07-20T21:26:50.779Z,99.90
2018-07-20T21:29:19.159Z,99.90
2018-07-20T21:31:47.729Z,99.90
2018-07-20T21:34:16.191Z,99.90
2018-07-20T21:36:44.587Z,99.90
2018-07-20T21:39:13.839Z,99.90
2018-07-20T21:41:43.286Z,99.90
2018-07-20T21:44:11.879Z,99.90
2018-07-20T21:46:40.291Z,99.90
2018-07-20T21:49:08.871Z,99.90
2018-07-20T21:51:38.367Z,99.90
2018-07-20T21:54:07.683Z,99.90
2018-07-20T21:56:36.863Z,99.90
2018-07-20T21:59:05.758Z,99.90
2018-07-20T22:01:34.890Z,99.90
2018-07-20T22:04:04.072Z,99.90
2018-07-20T22:06:32.805Z,99.90
2018-07-20T22:09:02.562Z,99.90
2018-07-20T22:11:31.564Z,99.90
2018-07-20T22:14:00.345Z,99.90
2018-07-20T22:16:30.014Z,99.90
2018-07-20T22:18:59.858Z,99.90
2018-07-20T22:21:30.191Z,99.90
2018-07-20T22:24:00.206Z,99.90
2018-07-20T22:26:29.708Z,99.90
2018-07-20T22:28:59.327Z,99.90
2018-07-20T22:31:29.686Z,99.90
2018-07-20T22:33:59.927Z,99.90
2018-07-20T22:38:59.338Z,99.90
2018-07-20T22:41:29.089Z,99.90
2018-07-20T22:43:59.225Z,99.90
2018-07-20T22:46:29.168Z,99.90
2018-07-20T22:48:59.342Z,99.90
2018-07-20T22:51:29.427Z,99.90
2018-07-20T22:53:59.003Z,99.90
2018-07-20T22:56:29.093Z,99.90
2018-07-20T22:58:59.539Z,99.90
2018-07-20T23:01:29.546Z,99.90
2018-07-20T23:03:59.487Z,99.90
2018-07-20T23:06:30.089Z,99.90
2018-07-20T23:11:29.413Z,99.90
2018-07-20T23:13:59.359Z,99.90
2018-07-20T23:16:29.337Z,99.90
2018-07-20T23:18:59.514Z,99.90
2018-07-20T23:21:29.718Z,99.90
2018-07-20T23:23:59.877Z,99.90
2018-07-20T23:26:30.073Z,99.90
2018-07-20T23:29:00.156Z,99.90
2018-07-20T23:31:30.471Z,99.90
2018-07-20T23:34:00.325Z,99.90
2018-07-20T23:36:30.154Z,99.90
2018-07-20T23:38:59.905Z,99.90
2018-07-20T23:41:29.809Z,99.90
2018-07-20T23:44:00.003Z,99.90
2018-07-20T23:46:29.958Z,99.90
2018-07-20T23:48:59.893Z,99.90
2018-07-20T23:51:29.855Z,99.90
2018-07-20T23:53:59.833Z,99.90
2018-07-20T23:56:29.786Z,99.90
2018-07-20T23:58:59.651Z,99.90
